Time;durP1;ratioP1;P1;durP2;ratioP2;P2;SDS_P1;SDS_P2;PMS_P1;PMS_P2;Temp;Humidity;BMP_temperature;BMP_pressure;BME280_temperature;BME280_humidity;BME280_pressure;Samples;Min_cycle;Max_cycle;Signal;HPM_P1;HPM_P2
2024/02/04 00:02:13;;;;;;;8.6;5.8;;;;;;;;;;;;;
2024/02/04 00:04:39;;;;;;;9.6;7.8;;;;;;;;;;;;;
2024/02/04 00:07:03;;;;;;;8.6;6.4;;;;;;;;;;;;;
2024/02/04 00:09:29;;;;;;;7.3;5.2;;;;;;;;;;;;;
2024/02/04 00:11:54;;;;;;;9;5.3;;;;;;;;;;;;;
2024/02/04 00:14:19;;;;;;;8.5;5.6;;;;;;;;;;;;;
2024/02/04 00:16:44;;;;;;;9.3;5.8;;;;;;;;;;;;;
2024/02/04 00:19:10;;;;;;;9.8;5.6;;;;;;;;;;;;;
2024/02/04 00:21:34;;;;;;;10.5;5.7;;;;;;;;;;;;;
2024/02/04 00:24:00;;;;;;;9.4;6;;;;;;;;;;;;;
2024/02/04 00:26:25;;;;;;;9.6;5.9;;;;;;;;;;;;;
2024/02/04 00:28:50;;;;;;;6.5;4.7;;;;;;;;;;;;;
2024/02/04 00:31:15;;;;;;;7.1;4.7;;;;;;;;;;;;;
2024/02/04 00:33:40;;;;;;;8.2;5;;;;;;;;;;;;;
2024/02/04 00:36:05;;;;;;;12.1;6.8;;;;;;;;;;;;;
2024/02/04 00:38:31;;;;;;;12;6.3;;;;;;;;;;;;;
2024/02/04 00:40:56;;;;;;;29.2;14.5;;;;;;;;;;;;;
2024/02/04 00:43:21;;;;;;;25.1;13.7;;;;;;;;;;;;;
2024/02/04 00:45:46;;;;;;;12;7.3;;;;;;;;;;;;;
2024/02/04 00:48:11;;;;;;;16.2;9.7;;;;;;;;;;;;;
2024/02/04 00:50:36;;;;;;;16.3;8.6;;;;;;;;;;;;;
2024/02/04 00:53:01;;;;;;;15.2;7.3;;;;;;;;;;;;;
2024/02/04 00:55:27;;;;;;;15.1;8.2;;;;;;;;;;;;;
2024/02/04 00:57:52;;;;;;;21;15.2;;;;;;;;;;;;;
2024/02/04 01:00:17;;;;;;;19.4;12.2;;;;;;;;;;;;;
2024/02/04 01:02:42;;;;;;;15.6;10.6;;;;;;;;;;;;;
2024/02/04 01:05:07;;;;;;;15.9;9;;;;;;;;;;;;;
2024/02/04 01:07:32;;;;;;;14.5;8.3;;;;;;;;;;;;;
2024/02/04 01:09:57;;;;;;;11.6;6.6;;;;;;;;;;;;;
2024/02/04 01:12:22;;;;;;;10.3;5.7;;;;;;;;;;;;;
2024/02/04 01:14:47;;;;;;;10.8;5.4;;;;;;;;;;;;;
2024/02/04 01:17:12;;;;;;;10.5;5.3;;;;;;;;;;;;;
2024/02/04 01:19:38;;;;;;;8;4.4;;;;;;;;;;;;;
2024/02/04 01:22:03;;;;;;;23.7;15.5;;;;;;;;;;;;;
2024/02/04 01:24:28;;;;;;;25.7;19.6;;;;;;;;;;;;;
2024/02/04 01:26:53;;;;;;;10.1;7.1;;;;;;;;;;;;;
2024/02/04 01:29:18;;;;;;;9.4;4.8;;;;;;;;;;;;;
2024/02/04 01:31:43;;;;;;;9.2;5.1;;;;;;;;;;;;;
2024/02/04 01:34:08;;;;;;;7.8;4.8;;;;;;;;;;;;;
2024/02/04 01:36:33;;;;;;;7.6;4.5;;;;;;;;;;;;;
2024/02/04 01:38:58;;;;;;;9.3;5.7;;;;;;;;;;;;;
2024/02/04 01:41:26;;;;;;;7.1;5.1;;;;;;;;;;;;;
2024/02/04 01:43:49;;;;;;;5.8;3.3;;;;;;;;;;;;;
2024/02/04 01:46:14;;;;;;;4.9;3.1;;;;;;;;;;;;;
2024/02/04 01:48:39;;;;;;;5.6;3.3;;;;;;;;;;;;;
2024/02/04 01:51:04;;;;;;;5.3;3.4;;;;;;;;;;;;;
2024/02/04 01:53:29;;;;;;;6.1;3.9;;;;;;;;;;;;;
2024/02/04 01:55:54;;;;;;;6.2;3.8;;;;;;;;;;;;;
2024/02/04 01:58:19;;;;;;;16.5;7.9;;;;;;;;;;;;;
2024/02/04 02:00:45;;;;;;;13;6.7;;;;;;;;;;;;;
2024/02/04 02:03:09;;;;;;;42.4;21.2;;;;;;;;;;;;;
2024/02/04 02:05:35;;;;;;;35.8;18.4;;;;;;;;;;;;;
2024/02/04 02:08:00;;;;;;;28.1;14.1;;;;;;;;;;;;;
2024/02/04 02:10:25;;;;;;;12.3;6.3;;;;;;;;;;;;;
2024/02/04 02:12:50;;;;;;;13.7;7.3;;;;;;;;;;;;;
2024/02/04 02:15:15;;;;;;;16.4;6.9;;;;;;;;;;;;;
2024/02/04 02:17:41;;;;;;;6.4;3.8;;;;;;;;;;;;;
2024/02/04 02:20:07;;;;;;;7.5;3.8;;;;;;;;;;;;;
2024/02/04 02:22:31;;;;;;;8.5;3.7;;;;;;;;;;;;;
2024/02/04 02:24:56;;;;;;;5.3;3.1;;;;;;;;;;;;;
2024/02/04 02:27:21;;;;;;;6.1;3.2;;;;;;;;;;;;;
2024/02/04 02:29:46;;;;;;;6.4;3.2;;;;;;;;;;;;;
2024/02/04 02:32:11;;;;;;;3.3;2.5;;;;;;;;;;;;;
2024/02/04 02:34:36;;;;;;;8.1;2.8;;;;;;;;;;;;;
2024/02/04 02:37:01;;;;;;;6.8;3.2;;;;;;;;;;;;;
2024/02/04 02:39:26;;;;;;;4.6;2.9;;;;;;;;;;;;;
2024/02/04 02:41:52;;;;;;;6.1;2.9;;;;;;;;;;;;;
2024/02/04 02:44:17;;;;;;;6.4;2.8;;;;;;;;;;;;;
2024/02/04 02:46:42;;;;;;;6.1;3.1;;;;;;;;;;;;;
2024/02/04 02:49:07;;;;;;;5.8;2.9;;;;;;;;;;;;;
2024/02/04 02:51:32;;;;;;;5.6;3;;;;;;;;;;;;;
2024/02/04 02:53:57;;;;;;;4.4;2.7;;;;;;;;;;;;;
2024/02/04 02:56:22;;;;;;;4.9;2.8;;;;;;;;;;;;;
2024/02/04 02:58:47;;;;;;;5.2;2.7;;;;;;;;;;;;;
2024/02/04 03:01:13;;;;;;;5.9;3;;;;;;;;;;;;;
2024/02/04 03:03:38;;;;;;;5.3;3.4;;;;;;;;;;;;;
2024/02/04 03:06:03;;;;;;;6.1;3.5;;;;;;;;;;;;;
2024/02/04 03:08:28;;;;;;;6.6;3.5;;;;;;;;;;;;;
2024/02/04 03:10:53;;;;;;;6.9;3.1;;;;;;;;;;;;;
2024/02/04 03:13:18;;;;;;;4.2;2.5;;;;;;;;;;;;;
2024/02/04 03:15:44;;;;;;;5.7;2.8;;;;;;;;;;;;;
2024/02/04 03:18:08;;;;;;;4.8;3.2;;;;;;;;;;;;;
2024/02/04 03:20:34;;;;;;;7.5;3;;;;;;;;;;;;;
2024/02/04 03:22:59;;;;;;;6.8;2.9;;;;;;;;;;;;;
2024/02/04 03:25:26;;;;;;;5;3;;;;;;;;;;;;;
2024/02/04 03:27:49;;;;;;;6;2.6;;;;;;;;;;;;;
2024/02/04 03:30:14;;;;;;;6.6;3;;;;;;;;;;;;;
2024/02/04 03:32:39;;;;;;;6.5;2.8;;;;;;;;;;;;;
2024/02/04 03:35:04;;;;;;;5.1;2.4;;;;;;;;;;;;;
2024/02/04 03:37:30;;;;;;;4.1;2.2;;;;;;;;;;;;;
2024/02/04 03:39:55;;;;;;;4.6;2;;;;;;;;;;;;;
2024/02/04 03:42:21;;;;;;;3.3;2.1;;;;;;;;;;;;;
2024/02/04 03:44:45;;;;;;;4.4;2.1;;;;;;;;;;;;;
2024/02/04 03:47:10;;;;;;;4;2;;;;;;;;;;;;;
2024/02/04 03:49:35;;;;;;;4.3;2.1;;;;;;;;;;;;;
2024/02/04 03:52:00;;;;;;;3.2;1.7;;;;;;;;;;;;;
2024/02/04 03:54:25;;;;;;;6;1.9;;;;;;;;;;;;;
2024/02/04 03:56:50;;;;;;;3.6;1.8;;;;;;;;;;;;;
2024/02/04 03:59:15;;;;;;;4.7;2.2;;;;;;;;;;;;;
2024/02/04 04:02:31;;;;;;;4.3;2.1;;;;;;;4.21;85.41504;946.4066;;;;
2024/02/04 04:04:56;;;;;;;4.7;2.3;;;;;;;4.2;85.34375;946.4411;;;;
2024/02/04 04:07:21;;;;;;;4.2;2.5;;;;;;;4.13;85.35352;946.5317;;;;
2024/02/04 04:09:46;;;;;;;3.1;1.9;;;;;;;4.18;85.41895;946.6127;;;;
2024/02/04 04:12:12;;;;;;;4.5;2.1;;;;;;;4.16;85.98926;946.6205;;;;
2024/02/04 04:14:37;;;;;;;3.6;1.9;;;;;;;4.12;86.18262;946.5366;;;;
2024/02/04 04:17:02;;;;;;;3.9;2;;;;;;;4.12;86.12793;946.4589;;;;
2024/02/04 04:19:27;;;;;;;4.1;2.3;;;;;;;4.12;86.11719;946.4573;;;;
2024/02/04 04:21:53;;;;;;;3.9;2.1;;;;;;;4.16;85.82227;946.4584;;;;
2024/02/04 04:24:19;;;;;;;3.8;2;;;;;;;4.17;86.08105;946.3791;;;;
2024/02/04 04:26:43;;;;;;;3;1.5;;;;;;;4.43;84.92969;946.3333;;;;
2024/02/04 04:29:08;;;;;;;3.9;1.8;;;;;;;4.42;85.04004;946.4441;;;;
2024/02/04 04:31:33;;;;;;;4;1.9;;;;;;;4.45;84.95605;946.4155;;;;
2024/02/04 04:33:58;;;;;;;3.8;1.9;;;;;;;4.47;84.94824;946.4453;;;;
2024/02/04 04:36:23;;;;;;;5.2;1.9;;;;;;;4.52;85.15039;946.4144;;;;
2024/02/04 04:38:50;;;;;;;3.8;1.9;;;;;;;4.56;85;946.4455;;;;
2024/02/04 04:41:13;;;;;;;5.6;2;;;;;;;4.65;84.67969;946.5531;;;;
2024/02/04 04:43:39;;;;;;;2.5;1.9;;;;;;;4.67;84.46973;946.6273;;;;
2024/02/04 04:46:04;;;;;;;3.7;1.8;;;;;;;4.73;84.21191;946.6239;;;;
2024/02/04 04:48:29;;;;;;;4;2;;;;;;;4.81;83.91406;946.6752;;;;
2024/02/04 04:50:54;;;;;;;3.3;2.1;;;;;;;4.84;83.5459;946.5223;;;;
2024/02/04 04:53:19;;;;;;;3.3;1.7;;;;;;;4.87;83.41797;946.7036;;;;
2024/02/04 04:55:44;;;;;;;4.1;2;;;;;;;;;;;;;
2024/02/04 04:58:09;;;;;;;3.4;2.2;;;;;;;;;;;;;
2024/02/04 05:00:34;;;;;;;4;2.1;;;;;;;;;;;;;
2024/02/04 05:03:00;;;;;;;3.9;1.9;;;;;;;;;;;;;
2024/02/04 05:05:25;;;;;;;7.2;2.2;;;;;;;;;;;;;
2024/02/04 05:07:50;;;;;;;4.3;2;;;;;;;;;;;;;
2024/02/04 05:10:15;;;;;;;3.4;1.9;;;;;;;;;;;;;
2024/02/04 05:12:40;;;;;;;2.8;1.9;;;;;;;;;;;;;
2024/02/04 05:15:05;;;;;;;3.1;2.1;;;;;;;;;;;;;
2024/02/04 05:17:32;;;;;;;3.6;2.2;;;;;;;;;;;;;
2024/02/04 05:19:56;;;;;;;2.1;1.7;;;;;;;;;;;;;
2024/02/04 05:22:21;;;;;;;7.2;2;;;;;;;;;;;;;
2024/02/04 05:24:46;;;;;;;3;2;;;;;;;;;;;;;
2024/02/04 05:27:11;;;;;;;4.4;2.3;;;;;;;;;;;;;
2024/02/04 05:29:36;;;;;;;3;1.7;;;;;;;;;;;;;
2024/02/04 05:32:01;;;;;;;3;2;;;;;;;;;;;;;
2024/02/04 05:34:27;;;;;;;4.1;2;;;;;;;;;;;;;
2024/02/04 05:36:52;;;;;;;4;2.6;;;;;;;;;;;;;
2024/02/04 05:39:17;;;;;;;3.5;2.3;;;;;;;;;;;;;
2024/02/04 05:41:42;;;;;;;5.4;2.3;;;;;;;;;;;;;
2024/02/04 05:44:08;;;;;;;4.4;2.6;;;;;;;;;;;;;
2024/02/04 05:46:32;;;;;;;4.4;2.6;;;;;;;;;;;;;
2024/02/04 05:48:57;;;;;;;10.9;6;;;;;;;;;;;;;
2024/02/04 05:51:22;;;;;;;91.3;54.5;;;;;;;;;;;;;
2024/02/04 05:53:47;;;;;;;75.8;46.1;;;;;;;;;;;;;
2024/02/04 05:56:12;;;;;;;13.2;8.9;;;;;;;;;;;;;
2024/02/04 05:58:38;;;;;;;8.6;5.3;;;;;;;;;;;;;
2024/02/04 06:01:03;;;;;;;6.2;4.9;;;;;;;;;;;;;
2024/02/04 06:03:28;;;;;;;5.3;3.4;;;;;;;;;;;;;
2024/02/04 06:05:53;;;;;;;4.2;2.5;;;;;;;;;;;;;
2024/02/04 06:08:18;;;;;;;4;2.5;;;;;;;;;;;;;
2024/02/04 06:10:44;;;;;;;3.3;2.4;;;;;;;;;;;;;
2024/02/04 06:13:09;;;;;;;5.2;2.3;;;;;;;;;;;;;
2024/02/04 06:15:35;;;;;;;4.3;2.5;;;;;;;;;;;;;
2024/02/04 06:17:59;;;;;;;4.5;2.5;;;;;;;;;;;;;
2024/02/04 06:20:24;;;;;;;5.4;3.1;;;;;;;;;;;;;
2024/02/04 06:22:49;;;;;;;5.3;3.5;;;;;;;;;;;;;
2024/02/04 06:25:14;;;;;;;4.9;3.3;;;;;;;;;;;;;
2024/02/04 06:27:40;;;;;;;5.3;3.1;;;;;;;;;;;;;
2024/02/04 06:30:04;;;;;;;5.3;3.4;;;;;;;;;;;;;
2024/02/04 06:32:29;;;;;;;6.5;3.5;;;;;;;;;;;;;
2024/02/04 06:34:55;;;;;;;6.9;3.6;;;;;;;;;;;;;
2024/02/04 06:37:20;;;;;;;5.5;3.6;;;;;;;;;;;;;
2024/02/04 06:39:45;;;;;;;5.6;3.7;;;;;;;;;;;;;
2024/02/04 06:42:10;;;;;;;8.5;5.2;;;;;;;;;;;;;
2024/02/04 06:44:35;;;;;;;6.3;4.2;;;;;;;;;;;;;
2024/02/04 06:47:00;;;;;;;6.8;3;;;;;;;;;;;;;
2024/02/04 06:49:26;;;;;;;4.9;2.9;;;;;;;;;;;;;
2024/02/04 06:51:56;;;;;;;6.6;3.3;;;;;;;;;;;;;
2024/02/04 06:54:16;;;;;;;5.8;3.6;;;;;;;;;;;;;
2024/02/04 06:56:41;;;;;;;5.5;3.7;;;;;;;;;;;;;
2024/02/04 06:59:06;;;;;;;6.2;3.3;;;;;;;;;;;;;
2024/02/04 07:01:31;;;;;;;5.2;3.5;;;;;;;;;;;;;
2024/02/04 07:03:56;;;;;;;6.5;3.4;;;;;;;;;;;;;
2024/02/04 07:06:21;;;;;;;7.1;4;;;;;;;;;;;;;
2024/02/04 07:08:47;;;;;;;7.1;4.3;;;;;;;;;;;;;
2024/02/04 07:11:12;;;;;;;10.4;5.2;;;;;;;;;;;;;
2024/02/04 07:13:37;;;;;;;8.4;5.8;;;;;;;;;;;;;
2024/02/04 07:16:02;;;;;;;8.2;5.2;;;;;;;;;;;;;
2024/02/04 07:18:27;;;;;;;7.2;4.1;;;;;;;;;;;;;
2024/02/04 07:20:52;;;;;;;7.2;3.8;;;;;;;;;;;;;
2024/02/04 07:23:17;;;;;;;5.9;3.9;;;;;;;;;;;;;
2024/02/04 07:25:43;;;;;;;8.8;5.7;;;;;;;;;;;;;
2024/02/04 07:28:07;;;;;;;6.1;3.8;;;;;;;;;;;;;
2024/02/04 07:30:33;;;;;;;5.8;3.8;;;;;;;;;;;;;
2024/02/04 07:32:58;;;;;;;5.2;4;;;;;;;;;;;;;
2024/02/04 07:35:23;;;;;;;6.3;4.3;;;;;;;;;;;;;
2024/02/04 07:37:48;;;;;;;4.3;3.9;;;;;;;;;;;;;
2024/02/04 07:40:13;;;;;;;7.3;4.7;;;;;;;;;;;;;
2024/02/04 07:42:38;;;;;;;7;5.1;;;;;;;;;;;;;
2024/02/04 07:45:08;;;;;;;7.4;5.3;;;;;;;;;;;;;
2024/02/04 07:47:28;;;;;;;6.3;4.9;;;;;;;;;;;;;
2024/02/04 07:49:53;;;;;;;8.1;4.9;;;;;;;;;;;;;
2024/02/04 07:52:18;;;;;;;6.6;4.8;;;;;;;;;;;;;
2024/02/04 07:54:46;;;;;;;9.1;4.5;;;;;;;;;;;;;
2024/02/04 07:57:09;;;;;;;6.7;4;;;;;;;;;;;;;
2024/02/04 07:59:34;;;;;;;5.6;3.9;;;;;;;;;;;;;
2024/02/04 08:01:59;;;;;;;5.9;3.3;;;;;;;;;;;;;
2024/02/04 08:04:24;;;;;;;7;3.7;;;;;;;;;;;;;
2024/02/04 08:06:49;;;;;;;4.9;3.1;;;;;;;;;;;;;
2024/02/04 08:09:15;;;;;;;7.2;4.1;;;;;;;;;;;;;
2024/02/04 08:11:40;;;;;;;7;5.1;;;;;;;;;;;;;
2024/02/04 08:14:05;;;;;;;5.9;3.7;;;;;;;;;;;;;
2024/02/04 08:16:30;;;;;;;5.2;3.6;;;;;;;;;;;;;
2024/02/04 08:18:56;;;;;;;6.9;5.1;;;;;;;;;;;;;
2024/02/04 08:21:20;;;;;;;6.8;4.6;;;;;;;;;;;;;
2024/02/04 08:23:46;;;;;;;6;4.5;;;;;;;;;;;;;
2024/02/04 08:26:11;;;;;;;3.8;3.2;;;;;;;;;;;;;
2024/02/04 08:28:35;;;;;;;6.2;3.4;;;;;;;;;;;;;
2024/02/04 08:31:01;;;;;;;5.8;3.4;;;;;;;;;;;;;
2024/02/04 08:33:26;;;;;;;5.9;3.2;;;;;;;;;;;;;
2024/02/04 08:35:51;;;;;;;6.4;2.9;;;;;;;;;;;;;
2024/02/04 08:38:16;;;;;;;6.2;2.8;;;;;;;;;;;;;
2024/02/04 08:40:41;;;;;;;8.2;4.1;;;;;;;;;;;;;
2024/02/04 08:43:06;;;;;;;4.2;3.2;;;;;;;;;;;;;
2024/02/04 08:45:31;;;;;;;8.9;3.6;;;;;;;;;;;;;
2024/02/04 08:47:56;;;;;;;7;4;;;;;;;;;;;;;
2024/02/04 08:50:22;;;;;;;7.9;4.4;;;;;;;;;;;;;
2024/02/04 08:52:47;;;;;;;9.5;4.8;;;;;;;;;;;;;
2024/02/04 08:55:12;;;;;;;9;4.6;;;;;;;;;;;;;
2024/02/04 08:57:37;;;;;;;8.8;4.9;;;;;;;;;;;;;
2024/02/04 09:00:02;;;;;;;6.9;4.6;;;;;;;;;;;;;
2024/02/04 09:02:27;;;;;;;7.6;3.5;;;;;;;;;;;;;
2024/02/04 09:04:53;;;;;;;6.4;4;;;;;;;;;;;;;
2024/02/04 09:07:17;;;;;;;7.8;3.7;;;;;;;;;;;;;
2024/02/04 09:09:42;;;;;;;6;3.3;;;;;;;;;;;;;
2024/02/04 09:12:07;;;;;;;7.5;3.9;;;;;;;;;;;;;
2024/02/04 09:14:32;;;;;;;8.3;3.3;;;;;;;;;;;;;
2024/02/04 09:16:58;;;;;;;7;3.7;;;;;;;;;;;;;
2024/02/04 09:19:24;;;;;;;6.8;3.8;;;;;;;;;;;;;
2024/02/04 09:21:48;;;;;;;6.8;4;;;;;;;;;;;;;
2024/02/04 09:24:13;;;;;;;6.7;4;;;;;;;;;;;;;
2024/02/04 09:26:38;;;;;;;6.1;3.4;;;;;;;;;;;;;
2024/02/04 09:29:04;;;;;;;5.8;3.2;;;;;;;;;;;;;
2024/02/04 09:31:29;;;;;;;4.3;2.3;;;;;;;;;;;;;
2024/02/04 09:33:54;;;;;;;4.9;2.6;;;;;;;;;;;;;
2024/02/04 09:36:19;;;;;;;4.5;2.9;;;;;;;;;;;;;
2024/02/04 09:38:44;;;;;;;6.2;2.7;;;;;;;;;;;;;
2024/02/04 09:41:09;;;;;;;7.3;3;;;;;;;;;;;;;
2024/02/04 09:43:35;;;;;;;5;2.4;;;;;;;;;;;;;
2024/02/04 09:46:00;;;;;;;5.9;2.6;;;;;;;;;;;;;
2024/02/04 09:48:26;;;;;;;8.1;2.3;;;;;;;;;;;;;
2024/02/04 09:50:50;;;;;;;7.4;2.3;;;;;;;;;;;;;
2024/02/04 09:53:15;;;;;;;4.9;2.4;;;;;;;;;;;;;
2024/02/04 09:55:40;;;;;;;5.3;2.4;;;;;;;;;;;;;
2024/02/04 09:58:05;;;;;;;5.5;1.9;;;;;;;;;;;;;
2024/02/04 10:00:30;;;;;;;6.4;2.7;;;;;;;;;;;;;
2024/02/04 10:02:56;;;;;;;7.8;2.4;;;;;;;;;;;;;
2024/02/04 10:05:21;;;;;;;5.8;2.6;;;;;;;;;;;;;
2024/02/04 10:07:46;;;;;;;2.7;1.6;;;;;;;;;;;;;
2024/02/04 10:10:11;;;;;;;8.2;2.2;;;;;;;;;;;;;
2024/02/04 10:12:38;;;;;;;4;1.7;;;;;;;;;;;;;
2024/02/04 10:15:02;;;;;;;4.8;2;;;;;;;;;;;;;
2024/02/04 10:17:26;;;;;;;9.1;2;;;;;;;;;;;;;
2024/02/04 10:19:51;;;;;;;7.6;2;;;;;;;;;;;;;
2024/02/04 10:22:17;;;;;;;6.1;2;;;;;;;;;;;;;
2024/02/04 10:24:41;;;;;;;7;2.2;;;;;;;;;;;;;
2024/02/04 10:27:06;;;;;;;4.3;1.9;;;;;;;;;;;;;
2024/02/04 10:29:31;;;;;;;7.7;1.6;;;;;;;;;;;;;
2024/02/04 10:31:59;;;;;;;4.7;1.6;;;;;;;;;;;;;
2024/02/04 10:34:21;;;;;;;3.7;1;;;;;;;;;;;;;
2024/02/04 10:36:47;;;;;;;3.6;1.1;;;;;;;;;;;;;
2024/02/04 10:39:12;;;;;;;3.3;1.2;;;;;;;;;;;;;
2024/02/04 10:41:38;;;;;;;2;0.8;;;;;;;;;;;;;
2024/02/04 10:44:02;;;;;;;1.7;1;;;;;;;;;;;;;
2024/02/04 10:46:27;;;;;;;5.8;1.7;;;;;;;;;;;;;
2024/02/04 10:48:52;;;;;;;7.7;1.1;;;;;;;;;;;;;
2024/02/04 10:51:18;;;;;;;7.3;2;;;;;;;;;;;;;
2024/02/04 10:53:42;;;;;;;6.4;1.7;;;;;;;;;;;;;
2024/02/04 10:56:08;;;;;;;6.4;1.6;;;;;;;;;;;;;
2024/02/04 10:58:33;;;;;;;3.4;1;;;;;;;;;;;;;
2024/02/04 11:00:58;;;;;;;2.8;0.7;;;;;;;;;;;;;
2024/02/04 11:03:27;;;;;;;2.1;0.6;;;;;;;;;;;;;
2024/02/04 11:05:48;;;;;;;1.4;0.3;;;;;;;;;;;;;
2024/02/04 11:08:14;;;;;;;3.7;0.3;;;;;;;;;;;;;
2024/02/04 11:10:38;;;;;;;5;0.7;;;;;;;;;;;;;
2024/02/04 11:13:04;;;;;;;1;0.4;;;;;;;;;;;;;
2024/02/04 11:15:29;;;;;;;0.4;0.3;;;;;;;;;;;;;
2024/02/04 11:17:54;;;;;;;1.3;0.3;;;;;;;;;;;;;
2024/02/04 11:20:19;;;;;;;0.9;0.3;;;;;;;;;;;;;
2024/02/04 11:22:44;;;;;;;1.1;0.3;;;;;;;;;;;;;
2024/02/04 11:25:09;;;;;;;2.3;0.5;;;;;;;;;;;;;
2024/02/04 11:27:34;;;;;;;1.5;0.3;;;;;;;;;;;;;
2024/02/04 11:29:59;;;;;;;2.6;0.7;;;;;;;;;;;;;
2024/02/04 11:32:25;;;;;;;0.8;0.4;;;;;;;;;;;;;
2024/02/04 11:34:50;;;;;;;3;0.7;;;;;;;;;;;;;
2024/02/04 11:37:15;;;;;;;1.5;0.5;;;;;;;;;;;;;
2024/02/04 11:39:40;;;;;;;1.2;0.6;;;;;;;;;;;;;
2024/02/04 11:42:05;;;;;;;0.8;0.5;;;;;;;;;;;;;
2024/02/04 11:44:30;;;;;;;0.8;0.3;;;;;;;;;;;;;
2024/02/04 11:46:55;;;;;;;3.2;0.7;;;;;;;;;;;;;
2024/02/04 11:49:21;;;;;;;3.1;0.7;;;;;;;;;;;;;
2024/02/04 11:51:45;;;;;;;1.7;0.7;;;;;;;;;;;;;
2024/02/04 11:54:12;;;;;;;3.7;1;;;;;;;;;;;;;
2024/02/04 11:56:36;;;;;;;3.6;1;;;;;;;;;;;;;
2024/02/04 11:59:01;;;;;;;3.5;1;;;;;;;;;;;;;
2024/02/04 12:01:26;;;;;;;1.3;0.5;;;;;;;;;;;;;
2024/02/04 12:03:51;;;;;;;2.2;0.5;;;;;;;;;;;;;
2024/02/04 12:06:16;;;;;;;1.4;0.5;;;;;;;;;;;;;
2024/02/04 12:08:41;;;;;;;2;0.6;;;;;;;;;;;;;
2024/02/04 12:11:06;;;;;;;2.2;0.6;;;;;;;;;;;;;
2024/02/04 12:13:32;;;;;;;3.1;0.7;;;;;;;;;;;;;
2024/02/04 12:15:57;;;;;;;2.3;0.6;;;;;;;;;;;;;
2024/02/04 12:18:22;;;;;;;0.9;0.5;;;;;;;;;;;;;
2024/02/04 12:20:47;;;;;;;2.9;0.6;;;;;;;;;;;;;
2024/02/04 12:23:12;;;;;;;1.1;0.4;;;;;;;;;;;;;
2024/02/04 12:25:37;;;;;;;2.9;0.6;;;;;;;;;;;;;
2024/02/04 12:28:03;;;;;;;1.3;0.5;;;;;;;;;;;;;
2024/02/04 12:30:27;;;;;;;2;0.3;;;;;;;;;;;;;
2024/02/04 12:32:52;;;;;;;2.2;0.5;;;;;;;;;;;;;
2024/02/04 12:35:17;;;;;;;1.8;0.4;;;;;;;;;;;;;
2024/02/04 12:37:43;;;;;;;0.7;0.5;;;;;;;;;;;;;
2024/02/04 12:40:09;;;;;;;0.7;0.4;;;;;;;;;;;;;
2024/02/04 12:42:33;;;;;;;1.5;0.3;;;;;;;;;;;;;
2024/02/04 12:44:58;;;;;;;0.8;0.5;;;;;;;;;;;;;
2024/02/04 12:47:26;;;;;;;1.9;0.4;;;;;;;;;;;;;
2024/02/04 12:49:48;;;;;;;0.4;0.4;;;;;;;;;;;;;
2024/02/04 12:52:13;;;;;;;1;0.5;;;;;;;;;;;;;
2024/02/04 12:54:38;;;;;;;1.8;0.5;;;;;;;;;;;;;
2024/02/04 12:57:04;;;;;;;1.7;0.6;;;;;;;;;;;;;
2024/02/04 12:59:29;;;;;;;4.9;0.5;;;;;;;;;;;;;
2024/02/04 13:01:54;;;;;;;1.2;0.5;;;;;;;;;;;;;
2024/02/04 13:04:19;;;;;;;2.3;0.4;;;;;;;;;;;;;
2024/02/04 13:06:44;;;;;;;2.1;0.6;;;;;;;;;;;;;
2024/02/04 13:09:09;;;;;;;2.3;0.6;;;;;;;;;;;;;
2024/02/04 13:11:34;;;;;;;3.1;0.6;;;;;;;;;;;;;
2024/02/04 13:13:59;;;;;;;1.4;0.7;;;;;;;;;;;;;
2024/02/04 13:16:25;;;;;;;1.2;0.5;;;;;;;;;;;;;
2024/02/04 13:18:50;;;;;;;0.5;0.4;;;;;;;;;;;;;
2024/02/04 13:21:19;;;;;;;1.3;0.5;;;;;;;;;;;;;
2024/02/04 13:23:40;;;;;;;2.6;0.3;;;;;;;;;;;;;
2024/02/04 13:26:06;;;;;;;1.5;0.4;;;;;;;;;;;;;
2024/02/04 13:28:30;;;;;;;0.6;0.4;;;;;;;;;;;;;
2024/02/04 13:30:56;;;;;;;1.9;0.4;;;;;;;;;;;;;
2024/02/04 13:33:20;;;;;;;0.3;0.3;;;;;;;;;;;;;
2024/02/04 13:35:48;;;;;;;2;0.4;;;;;;;;;;;;;
2024/02/04 13:38:11;;;;;;;5.3;3.5;;;;;;;;;;;;;
2024/02/04 13:40:40;;;;;;;4;1.9;;;;;;;;;;;;;
2024/02/04 13:43:01;;;;;;;5.4;2.8;;;;;;;;;;;;;
2024/02/04 13:45:26;;;;;;;1.5;1.3;;;;;;;;;;;;;
2024/02/04 13:47:51;;;;;;;3.3;0.9;;;;;;;;;;;;;
2024/02/04 13:50:16;;;;;;;2;0.5;;;;;;;;;;;;;
2024/02/04 13:52:41;;;;;;;1.9;0.7;;;;;;;;;;;;;
2024/02/04 13:55:07;;;;;;;2.5;0.7;;;;;;;;;;;;;
2024/02/04 13:57:31;;;;;;;3;0.6;;;;;;;;;;;;;
2024/02/04 13:59:57;;;;;;;0.3;0.3;;;;;;;;;;;;;
2024/02/04 14:02:23;;;;;;;0.4;0.4;;;;;;;;;;;;;
2024/02/04 14:04:47;;;;;;;1.7;0.7;;;;;;;;;;;;;
2024/02/04 14:07:12;;;;;;;1.6;0.4;;;;;;;;;;;;;
2024/02/04 14:09:37;;;;;;;1.4;0.5;;;;;;;;;;;;;
2024/02/04 14:12:03;;;;;;;1.3;0.6;;;;;;;;;;;;;
2024/02/04 14:14:27;;;;;;;1.2;0.5;;;;;;;;;;;;;
2024/02/04 14:16:53;;;;;;;1.4;0.5;;;;;;;;;;;;;
2024/02/04 14:19:18;;;;;;;1.1;0.6;;;;;;;;;;;;;
2024/02/04 14:21:43;;;;;;;2;0.7;;;;;;;;;;;;;
2024/02/04 14:24:08;;;;;;;1;0.6;;;;;;;;;;;;;
2024/02/04 14:26:33;;;;;;;0.9;0.4;;;;;;;;;;;;;
2024/02/04 14:28:58;;;;;;;0.9;0.5;;;;;;;;;;;;;
2024/02/04 14:31:23;;;;;;;1.5;0.5;;;;;;;;;;;;;
2024/02/04 14:33:49;;;;;;;1.6;0.5;;;;;;;;;;;;;
2024/02/04 14:36:13;;;;;;;1.1;0.6;;;;;;;;;;;;;
2024/02/04 14:38:39;;;;;;;3.4;0.7;;;;;;;;;;;;;
2024/02/04 14:41:03;;;;;;;1.8;0.5;;;;;;;;;;;;;
2024/02/04 14:43:29;;;;;;;0.8;0.4;;;;;;;;;;;;;
2024/02/04 14:45:53;;;;;;;1.9;0.5;;;;;;;;;;;;;
2024/02/04 14:48:19;;;;;;;2.9;0.6;;;;;;;;;;;;;
2024/02/04 14:50:44;;;;;;;2.7;0.5;;;;;;;;;;;;;
2024/02/04 14:53:09;;;;;;;0.8;0.4;;;;;;;;;;;;;
2024/02/04 14:55:34;;;;;;;1.8;0.5;;;;;;;;;;;;;
2024/02/04 14:57:59;;;;;;;1.2;0.4;;;;;;;;;;;;;
2024/02/04 15:00:26;;;;;;;1.2;0.4;;;;;;;;;;;;;
2024/02/04 15:02:49;;;;;;;2.3;0.4;;;;;;;;;;;;;
2024/02/04 15:05:15;;;;;;;1.8;0.7;;;;;;;;;;;;;
2024/02/04 15:07:40;;;;;;;1.2;0.6;;;;;;;;;;;;;
2024/02/04 15:10:04;;;;;;;2.2;0.4;;;;;;;;;;;;;
2024/02/04 15:12:30;;;;;;;3.5;0.5;;;;;;;;;;;;;
2024/02/04 15:14:55;;;;;;;1.1;0.4;;;;;;;;;;;;;
2024/02/04 15:17:20;;;;;;;2.7;0.5;;;;;;;;;;;;;
2024/02/04 15:19:45;;;;;;;1.1;0.5;;;;;;;;;;;;;
2024/02/04 15:22:10;;;;;;;2.5;0.8;;;;;;;;;;;;;
2024/02/04 15:24:35;;;;;;;2.2;0.6;;;;;;;;;;;;;
2024/02/04 15:27:04;;;;;;;1.6;0.5;;;;;;;;;;;;;
2024/02/04 15:29:25;;;;;;;0.7;0.4;;;;;;;;;;;;;
2024/02/04 15:31:51;;;;;;;0.8;0.4;;;;;;;;;;;;;
2024/02/04 15:34:16;;;;;;;1.5;0.4;;;;;;;;;;;;;
2024/02/04 15:36:41;;;;;;;0.9;0.6;;;;;;;;;;;;;
2024/02/04 15:39:10;;;;;;;1.6;0.4;;;;;;;;;;;;;
2024/02/04 15:41:32;;;;;;;1.2;0.5;;;;;;;;;;;;;
2024/02/04 15:43:56;;;;;;;3.3;0.8;;;;;;;;;;;;;
2024/02/04 15:46:21;;;;;;;1;0.5;;;;;;;;;;;;;
2024/02/04 15:48:46;;;;;;;2.4;0.4;;;;;;;;;;;;;
2024/02/04 15:51:11;;;;;;;1.5;0.5;;;;;;;;;;;;;
2024/02/04 15:53:37;;;;;;;1.8;0.6;;;;;;;;;;;;;
2024/02/04 15:56:02;;;;;;;2;0.7;;;;;;;;;;;;;
2024/02/04 15:58:27;;;;;;;3.3;0.6;;;;;;;;;;;;;
2024/02/04 16:00:52;;;;;;;1.9;0.5;;;;;;;;;;;;;
2024/02/04 16:03:17;;;;;;;1.8;0.5;;;;;;;;;;;;;
2024/02/04 16:05:42;;;;;;;1.7;1.6;;;;;;;;;;;;;
2024/02/04 16:08:09;;;;;;;2.8;0.9;;;;;;;;;;;;;
2024/02/04 16:10:32;;;;;;;1.7;0.5;;;;;;;;;;;;;
2024/02/04 16:12:58;;;;;;;3.8;0.8;;;;;;;;;;;;;
2024/02/04 16:15:22;;;;;;;1.3;0.6;;;;;;;;;;;;;
2024/02/04 16:17:48;;;;;;;1.6;0.7;;;;;;;;;;;;;
2024/02/04 16:20:13;;;;;;;5.6;2.4;;;;;;;;;;;;;
2024/02/04 16:22:38;;;;;;;4.1;1.9;;;;;;;;;;;;;
2024/02/04 16:25:03;;;;;;;3.9;1.9;;;;;;;;;;;;;
2024/02/04 16:27:28;;;;;;;3.9;1.6;;;;;;;;;;;;;
2024/02/04 16:29:53;;;;;;;2.5;1;;;;;;;;;;;;;
2024/02/04 16:32:18;;;;;;;2.1;1.3;;;;;;;;;;;;;
2024/02/04 16:34:44;;;;;;;3.8;1.5;;;;;;;;;;;;;
2024/02/04 16:37:09;;;;;;;8.4;3.6;;;;;;;;;;;;;
2024/02/04 16:39:34;;;;;;;4.5;2.1;;;;;;;;;;;;;
2024/02/04 16:41:59;;;;;;;1.9;1;;;;;;;;;;;;;
2024/02/04 16:44:26;;;;;;;1.1;0.5;;;;;;;;;;;;;
2024/02/04 16:46:49;;;;;;;2;0.9;;;;;;;;;;;;;
2024/02/04 16:49:14;;;;;;;1.7;0.6;;;;;;;;;;;;;
2024/02/04 16:51:39;;;;;;;0.9;0.5;;;;;;;;;;;;;
2024/02/04 16:54:04;;;;;;;2.4;0.5;;;;;;;;;;;;;
2024/02/04 16:56:30;;;;;;;0.9;0.4;;;;;;;;;;;;;
2024/02/04 16:58:55;;;;;;;3.2;0.7;;;;;;;;;;;;;
2024/02/04 17:01:20;;;;;;;1.8;0.7;;;;;;;;;;;;;
2024/02/04 17:03:45;;;;;;;1.9;0.7;;;;;;;;;;;;;
2024/02/04 17:06:10;;;;;;;0.8;0.7;;;;;;;;;;;;;
2024/02/04 17:08:36;;;;;;;1.6;0.7;;;;;;;;;;;;;
2024/02/04 17:11:00;;;;;;;1.9;0.9;;;;;;;;;;;;;
2024/02/04 17:13:26;;;;;;;1.5;0.6;;;;;;;;;;;;;
2024/02/04 17:15:51;;;;;;;1.9;0.5;;;;;;;;;;;;;
2024/02/04 17:18:16;;;;;;;2.2;1.2;;;;;;;;;;;;;
2024/02/04 17:20:42;;;;;;;1.7;1.3;;;;;;;;;;;;;
2024/02/04 17:23:06;;;;;;;2.3;0.9;;;;;;;;;;;;;
2024/02/04 17:25:32;;;;;;;0.8;0.7;;;;;;;;;;;;;
2024/02/04 17:27:56;;;;;;;3.4;1;;;;;;;;;;;;;
2024/02/04 17:30:22;;;;;;;1.1;0.7;;;;;;;;;;;;;
2024/02/04 17:32:51;;;;;;;1.9;0.7;;;;;;;;;;;;;
2024/02/04 17:35:13;;;;;;;4.1;0.6;;;;;;;;;;;;;
2024/02/04 17:37:37;;;;;;;2.1;1.2;;;;;;;;;;;;;
2024/02/04 17:40:02;;;;;;;1.9;0.9;;;;;;;;;;;;;
2024/02/04 17:42:28;;;;;;;1.8;0.9;;;;;;;;;;;;;
2024/02/04 17:44:52;;;;;;;1.9;0.8;;;;;;;;;;;;;
2024/02/04 17:47:18;;;;;;;0.9;0.6;;;;;;;;;;;;;
2024/02/04 17:49:42;;;;;;;1.1;0.6;;;;;;;;;;;;;
2024/02/04 17:52:08;;;;;;;0.7;0.6;;;;;;;;;;;;;
2024/02/04 17:54:34;;;;;;;3.3;0.9;;;;;;;;;;;;;
2024/02/04 17:56:58;;;;;;;1.2;0.8;;;;;;;;;;;;;
2024/02/04 17:59:23;;;;;;;1.8;0.7;;;;;;;;;;;;;
2024/02/04 18:01:48;;;;;;;3.4;1.3;;;;;;;;;;;;;
2024/02/04 18:04:13;;;;;;;0.9;0.7;;;;;;;;;;;;;
2024/02/04 18:06:38;;;;;;;1.5;0.7;;;;;;;;;;;;;
2024/02/04 18:09:05;;;;;;;3.2;1.3;;;;;;;;;;;;;
2024/02/04 18:11:28;;;;;;;4.6;1.2;;;;;;;;;;;;;
2024/02/04 18:13:54;;;;;;;1.9;1.8;;;;;;;;;;;;;
2024/02/04 18:16:19;;;;;;;2;1.8;;;;;;;;;;;;;
2024/02/04 18:18:44;;;;;;;1.5;1.1;;;;;;;;;;;;;
2024/02/04 18:21:10;;;;;;;1.9;1.6;;;;;;;;;;;;;
2024/02/04 18:23:34;;;;;;;1.9;1.6;;;;;;;;;;;;;
2024/02/04 18:25:59;;;;;;;2.6;0.9;;;;;;;;;;;;;
2024/02/04 18:28:24;;;;;;;1.4;0.9;;;;;;;;;;;;;
2024/02/04 18:30:49;;;;;;;3;0.9;;;;;;;;;;;;;
2024/02/04 18:33:14;;;;;;;1.5;0.6;;;;;;;;;;;;;
2024/02/04 18:35:39;;;;;;;1.8;0.7;;;;;;;;;;;;;
2024/02/04 18:38:05;;;;;;;1.5;0.6;;;;;;;;;;;;;
2024/02/04 18:40:30;;;;;;;1.2;0.7;;;;;;;;;;;;;
2024/02/04 18:42:57;;;;;;;1.6;0.7;;;;;;;;;;;;;
2024/02/04 18:45:20;;;;;;;3.9;1.1;;;;;;;;;;;;;
2024/02/04 18:47:45;;;;;;;1.4;0.9;;;;;;;;;;;;;
2024/02/04 18:50:11;;;;;;;1.7;0.9;;;;;;;;;;;;;
2024/02/04 18:52:36;;;;;;;2.6;1.4;;;;;;;;;;;;;
2024/02/04 18:55:01;;;;;;;2.6;1.1;;;;;;;;;;;;;
2024/02/04 18:57:26;;;;;;;2.2;1;;;;;;;;;;;;;
2024/02/04 18:59:51;;;;;;;4.4;0.9;;;;;;;;;;;;;
2024/02/04 19:02:16;;;;;;;1;0.7;;;;;;;;;;;;;
2024/02/04 19:04:41;;;;;;;2.1;1.3;;;;;;;;;;;;;
2024/02/04 19:07:06;;;;;;;3.2;1.4;;;;;;;;;;;;;
2024/02/04 19:09:31;;;;;;;1.8;1.5;;;;;;;;;;;;;
2024/02/04 19:11:57;;;;;;;1.8;1.3;;;;;;;;;;;;;
2024/02/04 19:14:22;;;;;;;2.7;1.5;;;;;;;;;;;;;
2024/02/04 19:16:46;;;;;;;3.3;1.5;;;;;;;;;;;;;
2024/02/04 19:19:12;;;;;;;2.1;1.4;;;;;;;;;;;;;
2024/02/04 19:21:37;;;;;;;2.3;1.3;;;;;;;;;;;;;
2024/02/04 19:24:02;;;;;;;3;1.7;;;;;;;;;;;;;
2024/02/04 19:26:27;;;;;;;4.8;2;;;;;;;;;;;;;
2024/02/04 19:28:52;;;;;;;4.5;3.5;;;;;;;;;;;;;
2024/02/04 19:31:17;;;;;;;4;3;;;;;;;;;;;;;
2024/02/04 19:33:42;;;;;;;4;2.4;;;;;;;;;;;;;
2024/02/04 19:36:08;;;;;;;3.1;1.6;;;;;;;;;;;;;
2024/02/04 19:38:33;;;;;;;2.1;1.5;;;;;;;;;;;;;
2024/02/04 19:40:58;;;;;;;2.6;2;;;;;;;;;;;;;
2024/02/04 19:43:23;;;;;;;2.6;1.8;;;;;;;;;;;;;
2024/02/04 19:45:48;;;;;;;4.2;2.1;;;;;;;;;;;;;
2024/02/04 19:48:13;;;;;;;3;1.8;;;;;;;;;;;;;
2024/02/04 19:50:39;;;;;;;2.3;1.4;;;;;;;;;;;;;
2024/02/04 19:53:05;;;;;;;4.1;2.1;;;;;;;;;;;;;
2024/02/04 19:55:29;;;;;;;4;2.2;;;;;;;;;;;;;
2024/02/04 19:57:54;;;;;;;3.3;1.5;;;;;;;;;;;;;
2024/02/04 20:00:21;;;;;;;1.4;0.7;;;;;;;;;;;;;
2024/02/04 20:02:45;;;;;;;0.8;0.6;;;;;;;;;;;;;
2024/02/04 20:05:09;;;;;;;1.3;0.5;;;;;;;;;;;;;
2024/02/04 20:07:34;;;;;;;0.8;0.6;;;;;;;;;;;;;
2024/02/04 20:10:00;;;;;;;0.8;0.6;;;;;;;;;;;;;